createdAt,value
2022-08-23T00:02:28.762Z,36.52
2022-08-23T00:05:07.829Z,36.26
2022-08-23T00:07:42.230Z,36.61
2022-08-23T00:10:13.406Z,36.32
2022-08-23T00:12:41.482Z,36.47
2022-08-23T00:15:14.578Z,36.24
2022-08-23T00:17:44.885Z,36.08
2022-08-23T00:20:18.047Z,36.34
2022-08-23T00:22:47.634Z,36.48
2022-08-23T00:25:15.731Z,36.59
2022-08-23T00:27:44.210Z,36.80
2022-08-23T00:30:14.102Z,36.87
2022-08-23T00:32:42.336Z,36.48
2022-08-23T00:35:12.903Z,36.62
2022-08-23T00:38:32.350Z,37.38
2022-08-23T00:40:48.168Z,37.10
2022-08-23T00:43:38.087Z,37.59
2022-08-23T00:46:36.499Z,37.48
2022-08-23T00:49:11.052Z,37.38
2022-08-23T00:51:52.400Z,37.97
2022-08-23T00:54:24.448Z,37.40
2022-08-23T00:56:53.572Z,37.56
2022-08-23T00:59:21.717Z,37.90
2022-08-23T01:01:49.785Z,37.62
2022-08-23T01:04:17.958Z,37.49
2022-08-23T01:06:55.245Z,38.16
2022-08-23T01:09:25.983Z,37.56
2022-08-23T01:12:00.364Z,37.73
2022-08-23T01:14:35.768Z,38.19
2022-08-23T01:17:10.004Z,38.46
2022-08-23T01:19:42.369Z,37.79
2022-08-23T01:22:18.230Z,38.45
2022-08-23T01:25:07.320Z,37.82
2022-08-23T01:27:37.978Z,38.67
2022-08-23T01:30:10.974Z,38.19
2022-08-23T01:32:45.021Z,38.28
2022-08-23T01:35:13.519Z,38.35
2022-08-23T01:37:42.122Z,39.20
2022-08-23T01:40:12.637Z,38.31
2022-08-23T01:42:42.645Z,38.26
2022-08-23T01:45:13.569Z,38.14
2022-08-23T01:47:41.280Z,38.83
2022-08-23T01:50:12.798Z,38.17
2022-08-23T01:52:47.111Z,38.84
2022-08-23T01:55:17.449Z,38.37
2022-08-23T01:57:49.238Z,38.13
2022-08-23T02:00:19.509Z,38.25
2022-08-23T02:02:47.164Z,38.13
2022-08-23T02:05:19.022Z,38.75
2022-08-23T02:07:47.781Z,38.18
2022-08-23T02:10:17.281Z,38.71
2022-08-23T02:12:44.858Z,38.48
2022-08-23T02:15:12.792Z,39.08
2022-08-23T02:17:40.444Z,39.24
2022-08-23T02:20:09.238Z,39.23
2022-08-23T02:22:38.902Z,39.22
2022-08-23T02:25:08.302Z,39.51
2022-08-23T02:27:38.437Z,39.37
2022-08-23T02:30:12.965Z,39.60
2022-08-23T02:32:40.258Z,39.11
2022-08-23T02:35:08.671Z,39.06
2022-08-23T02:37:36.304Z,39.23
2022-08-23T02:40:04.934Z,39.37
2022-08-23T02:42:32.333Z,38.72
2022-08-23T02:45:00.982Z,38.55
2022-08-23T02:47:28.322Z,38.65
2022-08-23T02:49:55.733Z,38.66
2022-08-23T02:52:23.087Z,38.72
2022-08-23T02:54:53.269Z,39.28
2022-08-23T02:57:26.174Z,38.78
2022-08-23T02:59:55.140Z,39.58
2022-08-23T03:02:23.984Z,39.07
2022-08-23T03:04:51.365Z,39.17
2022-08-23T03:07:19.233Z,39.13
2022-08-23T03:09:46.778Z,39.05
2022-08-23T03:12:14.196Z,39.87
2022-08-23T03:14:41.570Z,39.66
2022-08-23T03:17:10.810Z,39.74
2022-08-23T03:19:42.044Z,38.93
2022-08-23T03:22:09.744Z,39.59
2022-08-23T03:24:37.372Z,39.22
2022-08-23T03:27:06.808Z,39.25
2022-08-23T03:29:34.395Z,39.41
2022-08-23T03:32:02.975Z,39.09
2022-08-23T03:34:30.757Z,39.12
2022-08-23T03:36:59.578Z,39.68
2022-08-23T03:39:27.302Z,39.73
2022-08-23T03:41:54.704Z,39.70
2022-08-23T03:44:22.066Z,39.88
2022-08-23T03:46:50.526Z,40.02
2022-08-23T03:49:17.900Z,40.06
2022-08-23T03:51:45.283Z,39.43
2022-08-23T03:54:14.035Z,39.84
2022-08-23T03:56:54.557Z,39.45
2022-08-23T03:59:22.785Z,39.51
2022-08-23T04:01:50.230Z,40.06
2022-08-23T04:04:17.811Z,40.12
2022-08-23T04:06:45.293Z,39.85
2022-08-23T04:09:15.432Z,39.53
2022-08-23T04:11:43.549Z,40.11
2022-08-23T04:14:13.021Z,39.62
2022-08-23T04:16:40.485Z,40.35
2022-08-23T04:19:13.129Z,40.16
2022-08-23T04:21:48.290Z,39.84
2022-08-23T04:24:17.837Z,40.31
2022-08-23T04:26:45.699Z,39.92
2022-08-23T04:29:24.934Z,39.83
2022-08-23T04:32:02.810Z,40.21
2022-08-23T04:34:33.820Z,40.22
2022-08-23T04:37:02.162Z,40.78
2022-08-23T04:39:51.814Z,40.28
2022-08-23T04:42:23.191Z,40.07
2022-08-23T04:44:51.021Z,39.87
2022-08-23T04:47:18.658Z,40.07
2022-08-23T04:49:46.834Z,39.78
2022-08-23T04:52:19.085Z,39.75
2022-08-23T04:54:48.313Z,39.86
2022-08-23T04:57:15.688Z,39.85
2022-08-23T04:59:43.284Z,40.42
2022-08-23T05:02:10.729Z,40.38
2022-08-23T05:04:38.134Z,40.06
2022-08-23T05:07:05.757Z,40.53
2022-08-23T05:09:33.111Z,40.10
2022-08-23T05:12:01.790Z,40.17
2022-08-23T05:14:29.089Z,40.19
2022-08-23T05:16:56.454Z,40.53
2022-08-23T05:19:24.362Z,40.45
2022-08-23T05:21:56.340Z,40.25
2022-08-23T05:24:24.454Z,40.25
2022-08-23T05:26:51.788Z,40.42
2022-08-23T05:29:21.497Z,40.25
2022-08-23T05:31:49.951Z,40.39
2022-08-23T05:34:17.711Z,40.71
2022-08-23T05:36:56.152Z,41.13
2022-08-23T05:39:33.011Z,40.96
2022-08-23T05:42:05.089Z,41.07
2022-08-23T05:44:36.453Z,40.81
2022-08-23T05:47:11.422Z,41.33
2022-08-23T05:49:40.271Z,41.38
2022-08-23T05:52:12.153Z,41.00
2022-08-23T05:54:40.465Z,41.28
2022-08-23T05:57:08.719Z,41.44
2022-08-23T05:59:37.464Z,40.65
2022-08-23T06:02:06.077Z,41.06
2022-08-23T06:04:33.582Z,40.94
2022-08-23T06:07:01.079Z,40.91
2022-08-23T06:09:28.476Z,40.21
2022-08-23T06:11:55.842Z,40.91
2022-08-23T06:14:23.702Z,40.05
2022-08-23T06:16:55.992Z,40.01
2022-08-23T06:19:24.580Z,40.15
2022-08-23T06:21:53.187Z,39.99
2022-08-23T06:24:20.954Z,40.33
2022-08-23T06:26:48.287Z,39.59
2022-08-23T06:29:19.114Z,39.59
2022-08-23T06:31:50.697Z,39.37
2022-08-23T06:34:24.318Z,39.73
2022-08-23T06:36:55.148Z,39.71
2022-08-23T06:39:25.622Z,39.60
2022-08-23T06:41:57.054Z,39.84
2022-08-23T06:44:24.399Z,39.22
2022-08-23T06:46:51.799Z,39.44
2022-08-23T06:49:20.651Z,39.31
2022-08-23T06:51:52.545Z,39.81
2022-08-23T06:54:26.579Z,39.01
2022-08-23T06:56:55.675Z,39.19
2022-08-23T06:59:23.244Z,39.51
2022-08-23T07:01:55.114Z,38.63
2022-08-23T07:04:28.207Z,38.30
2022-08-23T07:06:56.088Z,38.72
2022-08-23T07:09:23.649Z,37.96
2022-08-23T07:11:51.687Z,38.06
2022-08-23T07:14:22.468Z,37.46
2022-08-23T07:16:52.946Z,37.46
2022-08-23T07:19:28.996Z,36.97
2022-08-23T07:21:58.131Z,37.31
2022-08-23T07:24:32.296Z,36.91
2022-08-23T07:27:06.389Z,37.46
2022-08-23T07:29:35.822Z,36.70
2022-08-23T07:32:04.202Z,36.73
2022-08-23T07:34:33.370Z,36.06
2022-08-23T07:37:01.644Z,35.81
2022-08-23T07:39:31.658Z,35.77
2022-08-23T07:42:00.296Z,35.37
2022-08-23T07:44:28.191Z,34.87
2022-08-23T07:46:56.286Z,34.79
2022-08-23T07:49:29.431Z,34.39
2022-08-23T07:51:58.996Z,34.32
2022-08-23T07:54:28.392Z,34.44
2022-08-23T07:56:55.839Z,34.21
2022-08-23T07:59:23.849Z,33.59
2022-08-23T08:01:51.590Z,33.03
2022-08-23T08:04:19.035Z,32.89
2022-08-23T08:07:10.598Z,32.41
2022-08-23T08:09:40.075Z,30.70
2022-08-23T08:12:07.947Z,29.71
2022-08-23T08:14:36.307Z,28.95
2022-08-23T08:17:04.705Z,27.52
2022-08-23T08:19:32.110Z,26.68
2022-08-23T08:21:59.481Z,25.46
2022-08-23T08:24:26.923Z,24.67
2022-08-23T08:26:55.625Z,23.79
2022-08-23T08:29:23.064Z,22.82
2022-08-23T08:31:54.090Z,22.42
2022-08-23T08:34:22.591Z,22.18
2022-08-23T08:36:53.790Z,22.37
2022-08-23T08:39:24.277Z,20.75
2022-08-23T08:42:19.512Z,20.95
2022-08-23T08:44:53.861Z,20.81
2022-08-23T08:47:35.183Z,20.33
2022-08-23T08:50:15.628Z,20.36
2022-08-23T08:52:51.573Z,20.19
2022-08-23T08:55:26.239Z,19.86
2022-08-23T08:57:56.256Z,19.24
2022-08-23T09:00:28.528Z,19.87
2022-08-23T09:02:58.662Z,20.40
2022-08-23T09:05:31.730Z,19.65
2022-08-23T09:08:27.625Z,19.47
2022-08-23T09:11:06.879Z,18.91
2022-08-23T09:14:16.809Z,18.96
2022-08-23T09:16:53.332Z,19.09
2022-08-23T09:19:25.094Z,19.11
2022-08-23T09:21:59.124Z,19.34
2022-08-23T09:24:27.582Z,19.40
2022-08-23T09:26:56.185Z,19.48
2022-08-23T09:29:28.724Z,19.11
2022-08-23T09:32:02.284Z,18.85
2022-08-23T09:34:42.750Z,18.67
2022-08-23T09:37:20.619Z,18.03
2022-08-23T09:39:51.534Z,18.00
2022-08-23T09:42:35.998Z,17.37
2022-08-23T09:45:23.934Z,17.39
2022-08-23T09:47:51.774Z,16.59
2022-08-23T09:50:29.132Z,16.53
2022-08-23T09:53:00.710Z,17.02
2022-08-23T09:55:33.807Z,16.29
2022-08-23T09:58:05.170Z,15.82
2022-08-23T10:00:37.344Z,15.71
2022-08-23T10:03:25.558Z,15.59
2022-08-23T10:05:57.536Z,15.12
2022-08-23T10:08:29.568Z,15.16
2022-08-23T10:11:05.424Z,15.03
2022-08-23T10:13:43.230Z,14.94
2022-08-23T10:16:31.238Z,14.85
2022-08-23T10:19:10.589Z,14.82
2022-08-23T10:21:45.388Z,14.77
2022-08-23T10:24:28.253Z,13.82
2022-08-23T10:27:34.907Z,13.71
2022-08-23T10:30:10.824Z,13.97
2022-08-23T10:33:02.057Z,14.05
2022-08-23T10:35:39.659Z,14.79
2022-08-23T10:38:40.815Z,15.12
2022-08-23T10:41:43.684Z,15.68
2022-08-23T10:44:26.006Z,16.55
2022-08-23T10:47:17.943Z,17.01
2022-08-23T10:49:52.494Z,18.15
2022-08-23T10:52:27.728Z,18.63
2022-08-23T10:55:01.839Z,19.15
2022-08-23T10:57:39.291Z,19.26
2022-08-23T11:00:16.379Z,18.85
2022-08-23T11:02:55.657Z,19.33
2022-08-23T11:05:28.946Z,19.49
2022-08-23T11:08:02.161Z,18.44
2022-08-23T11:10:55.883Z,18.78
2022-08-23T11:13:30.604Z,18.98
2022-08-23T11:16:07.060Z,19.02
2022-08-23T11:18:45.327Z,18.91
2022-08-23T11:21:48.361Z,18.21
2022-08-23T11:24:55.505Z,19.08
2022-08-23T11:27:37.377Z,18.49
2022-08-23T11:30:45.168Z,18.52
2022-08-23T11:33:26.367Z,19.32
2022-08-23T11:36:16.729Z,18.79
2022-08-23T11:39:11.913Z,18.79
2022-08-23T11:42:05.881Z,18.92
2022-08-23T11:44:42.041Z,18.79
2022-08-23T11:47:12.145Z,19.22
2022-08-23T11:50:25.729Z,18.30
2022-08-23T11:53:20.137Z,18.20
2022-08-23T11:56:38.362Z,18.56
2022-08-23T11:59:47.350Z,18.58
2022-08-23T12:02:41.128Z,18.05
2022-08-23T12:05:32.308Z,18.26
2022-08-23T12:08:49.003Z,18.42
2022-08-23T12:11:20.170Z,18.17
2022-08-23T12:14:00.431Z,18.27
2022-08-23T12:16:44.235Z,18.77
2022-08-23T12:19:31.533Z,18.59
2022-08-23T12:22:11.416Z,19.07
2022-08-23T12:24:46.885Z,19.37
2022-08-23T12:27:31.705Z,19.66
2022-08-23T12:30:06.451Z,19.60
2022-08-23T12:32:44.997Z,18.95
2022-08-23T12:35:35.060Z,19.75
2022-08-23T12:38:09.822Z,19.74
2022-08-23T12:40:42.527Z,20.17
2022-08-23T12:43:22.829Z,20.66
2022-08-23T12:45:54.655Z,20.15
2022-08-23T12:48:26.219Z,20.18
2022-08-23T12:50:57.145Z,20.14
2022-08-23T12:53:32.097Z,20.72
2022-08-23T12:56:03.832Z,20.27
2022-08-23T12:58:39.766Z,20.70
2022-08-23T13:01:19.650Z,20.96
2022-08-23T13:03:54.346Z,20.67
2022-08-23T13:06:28.374Z,20.74
2022-08-23T13:09:03.121Z,20.58
2022-08-23T13:11:34.553Z,20.45
2022-08-23T13:14:23.675Z,20.80
2022-08-23T13:16:52.685Z,20.41
2022-08-23T13:19:27.381Z,20.50
2022-08-23T13:22:25.003Z,20.61
2022-08-23T13:27:58.381Z,20.28
2022-08-23T13:30:29.732Z,20.33
2022-08-23T13:33:21.420Z,20.28
2022-08-23T13:35:51.487Z,20.21
2022-08-23T13:38:26.460Z,20.43
2022-08-23T13:41:01.118Z,20.53
2022-08-23T13:43:38.313Z,20.83
2022-08-23T13:46:19.389Z,20.50
2022-08-23T13:48:57.342Z,20.27
2022-08-23T13:51:30.662Z,20.74
2022-08-23T13:54:00.996Z,20.94
2022-08-23T13:56:30.908Z,21.08
2022-08-23T13:59:04.381Z,20.74
2022-08-23T14:01:33.813Z,20.56
2022-08-23T14:04:01.239Z,20.75
2022-08-23T14:06:28.723Z,20.74
2022-08-23T14:08:56.143Z,19.36
2022-08-23T14:11:23.558Z,19.80
2022-08-23T14:13:51.382Z,19.84
2022-08-23T14:16:39.465Z,20.18
2022-08-23T14:19:16.470Z,20.28
2022-08-23T14:21:46.783Z,20.30
2022-08-23T14:24:14.764Z,19.96
2022-08-23T14:26:51.797Z,20.37
2022-08-23T14:29:22.299Z,19.83
2022-08-23T14:31:51.789Z,20.10
2022-08-23T14:34:21.551Z,20.13
2022-08-23T14:39:38.932Z,19.82
2022-08-23T14:42:07.508Z,20.15
2022-08-23T14:44:35.966Z,20.81
2022-08-23T14:47:04.904Z,20.65
2022-08-23T14:49:34.049Z,20.50
2022-08-23T14:52:01.642Z,20.53
2022-08-23T14:54:29.222Z,20.64
2022-08-23T14:56:57.033Z,20.02
2022-08-23T14:59:24.527Z,20.18
2022-08-23T15:01:54.533Z,19.84
2022-08-23T15:04:24.848Z,20.41
2022-08-23T15:07:17.236Z,20.97
2022-08-23T15:09:45.645Z,20.81
2022-08-23T15:15:00.838Z,20.38
2022-08-23T15:17:31.456Z,20.33
2022-08-23T15:19:59.524Z,20.20
2022-08-23T15:22:28.182Z,20.78
2022-08-23T15:24:55.542Z,20.45
2022-08-23T15:27:24.531Z,20.77
2022-08-23T15:29:52.087Z,20.99
2022-08-23T15:32:22.377Z,21.19
2022-08-23T15:34:50.899Z,21.18
2022-08-23T15:37:21.136Z,21.45
2022-08-23T15:39:50.629Z,21.67
2022-08-23T15:42:20.419Z,22.02
2022-08-23T15:44:48.679Z,21.63
2022-08-23T15:47:24.637Z,21.94
2022-08-23T15:49:52.568Z,21.75
2022-08-23T15:52:20.827Z,21.88
2022-08-23T15:54:49.643Z,21.68
2022-08-23T15:57:22.228Z,21.88
2022-08-23T15:59:49.977Z,21.86
2022-08-23T16:02:17.528Z,21.59
2022-08-23T16:04:45.094Z,21.67
2022-08-23T16:07:17.482Z,21.19
2022-08-23T16:09:45.418Z,21.38
2022-08-23T16:12:15.879Z,21.67
2022-08-23T16:14:43.274Z,21.26
2022-08-23T16:17:11.507Z,21.49
2022-08-23T16:19:38.892Z,21.78
2022-08-23T16:22:06.290Z,21.91
2022-08-23T16:24:33.691Z,21.91
2022-08-23T16:27:01.079Z,21.95
2022-08-23T16:29:33.294Z,21.70
2022-08-23T16:32:00.896Z,21.85
2022-08-23T16:34:28.365Z,21.17
2022-08-23T16:36:59.396Z,21.57
2022-08-23T16:39:27.454Z,21.51
2022-08-23T16:41:56.653Z,21.34
2022-08-23T16:44:24.446Z,21.61
2022-08-23T16:46:53.518Z,21.90
2022-08-23T16:49:22.385Z,21.34
2022-08-23T16:51:50.645Z,22.24
2022-08-23T16:54:19.998Z,22.69
2022-08-23T16:56:47.548Z,22.43
2022-08-23T16:59:15.120Z,22.49
2022-08-23T17:01:50.239Z,22.69
2022-08-23T17:04:21.655Z,22.72
2022-08-23T17:06:49.102Z,22.41
2022-08-23T17:09:16.910Z,22.45
2022-08-23T17:11:45.017Z,22.80
2022-08-23T17:14:12.931Z,22.65
2022-08-23T17:16:41.682Z,23.20
2022-08-23T17:19:09.232Z,23.03
2022-08-23T17:21:39.510Z,23.23
2022-08-23T17:24:07.791Z,22.97
2022-08-23T17:26:35.942Z,23.26
2022-08-23T17:29:04.815Z,23.24
2022-08-23T17:31:32.224Z,23.23
2022-08-23T17:34:03.353Z,23.55
2022-08-23T17:36:39.073Z,23.88
2022-08-23T17:39:12.158Z,23.59
2022-08-23T17:41:44.949Z,23.83
2022-08-23T17:44:13.222Z,23.73
2022-08-23T17:46:44.900Z,23.73
2022-08-23T17:49:13.112Z,24.27
2022-08-23T17:51:42.130Z,23.94
2022-08-23T17:54:16.130Z,24.11
2022-08-23T17:56:50.046Z,24.16
2022-08-23T17:59:18.730Z,24.79
2022-08-23T18:01:46.401Z,24.54
2022-08-23T18:04:14.039Z,24.08
2022-08-23T18:06:42.968Z,25.11
2022-08-23T18:09:11.390Z,25.04
2022-08-23T18:11:39.095Z,24.48
2022-08-23T18:14:06.575Z,25.51
2022-08-23T18:16:35.768Z,25.30
2022-08-23T18:19:06.244Z,24.81
2022-08-23T18:21:38.038Z,25.15
2022-08-23T18:24:08.296Z,24.86
2022-08-23T18:26:55.087Z,25.33
2022-08-23T18:29:24.139Z,25.75
2022-08-23T18:31:52.024Z,25.57
2022-08-23T18:34:19.945Z,25.72
2022-08-23T18:36:47.374Z,25.21
2022-08-23T18:39:16.984Z,25.67
2022-08-23T18:42:00.515Z,25.99
2022-08-23T18:44:28.388Z,26.12
2022-08-23T18:46:55.986Z,25.93
2022-08-23T18:49:23.785Z,25.67
2022-08-23T18:51:51.100Z,26.25
2022-08-23T18:54:20.201Z,25.43
2022-08-23T18:56:47.702Z,25.72
2022-08-23T18:59:15.057Z,26.41
2022-08-23T19:01:44.906Z,26.42
2022-08-23T19:04:13.473Z,26.01
2022-08-23T19:06:41.520Z,26.36
2022-08-23T19:09:12.848Z,26.30
2022-08-23T19:11:43.141Z,25.63
2022-08-23T19:14:12.658Z,25.75
2022-08-23T19:16:44.646Z,25.91
2022-08-23T19:19:15.977Z,26.29
2022-08-23T19:21:43.612Z,26.32
2022-08-23T19:24:11.407Z,25.72
2022-08-23T19:26:39.145Z,25.79
2022-08-23T19:29:09.508Z,26.28
2022-08-23T19:31:45.403Z,25.66
2022-08-23T19:34:12.857Z,26.50
2022-08-23T19:36:47.049Z,25.79
2022-08-23T19:39:17.849Z,26.39
2022-08-23T19:41:48.396Z,26.44
2022-08-23T19:44:17.622Z,25.85
2022-08-23T19:46:45.402Z,26.38
2022-08-23T19:49:14.658Z,25.89
2022-08-23T19:51:43.152Z,26.15
2022-08-23T19:54:12.824Z,26.58
2022-08-23T19:56:44.692Z,26.57
2022-08-23T19:59:19.525Z,26.74
2022-08-23T20:01:47.924Z,26.69
2022-08-23T20:04:15.411Z,26.08
2022-08-23T20:06:43.260Z,26.67
2022-08-23T20:09:11.290Z,26.96
2022-08-23T20:11:39.622Z,26.25
2022-08-23T20:14:07.953Z,27.13
2022-08-23T20:16:38.294Z,26.56
2022-08-23T20:19:09.532Z,26.63
2022-08-23T20:21:37.953Z,27.31
2022-08-23T20:24:06.603Z,27.23
2022-08-23T20:26:38.970Z,27.42
2022-08-23T20:29:07.943Z,27.37
2022-08-23T20:31:39.935Z,27.13
2022-08-23T20:34:09.296Z,27.19
2022-08-23T20:36:37.379Z,27.33
2022-08-23T20:39:05.308Z,27.53
2022-08-23T20:41:37.213Z,28.06
2022-08-23T20:44:07.109Z,28.10
2022-08-23T20:46:36.276Z,28.10
2022-08-23T20:49:04.722Z,27.94
2022-08-23T20:51:36.859Z,28.58
2022-08-23T20:54:05.305Z,28.46
2022-08-23T20:56:33.231Z,28.81
2022-08-23T20:59:00.638Z,28.54
2022-08-23T21:01:28.423Z,28.35
2022-08-23T21:03:57.218Z,28.91
2022-08-23T21:06:30.737Z,28.85
2022-08-23T21:09:00.097Z,28.77
2022-08-23T21:11:29.076Z,28.66
2022-08-23T21:13:58.661Z,28.99
2022-08-23T21:16:27.420Z,28.67
2022-08-23T21:18:56.919Z,29.01
2022-08-23T21:21:26.181Z,28.98
2022-08-23T21:23:55.173Z,28.87
2022-08-23T21:26:23.579Z,29.30
2022-08-23T21:28:52.702Z,28.97
2022-08-23T21:31:23.959Z,29.59
2022-08-23T21:33:52.736Z,29.07
2022-08-23T21:36:23.469Z,29.74
2022-08-23T21:38:50.908Z,29.98
2022-08-23T21:41:34.721Z,29.60
2022-08-23T21:44:05.741Z,30.02
2022-08-23T21:46:33.617Z,29.92
2022-08-23T21:49:01.647Z,29.92
2022-08-23T21:51:30.561Z,30.20
2022-08-23T21:53:58.547Z,30.25
2022-08-23T21:56:27.851Z,30.20
2022-08-23T21:58:58.954Z,30.23
2022-08-23T22:01:26.920Z,30.42
2022-08-23T22:03:56.959Z,30.87
2022-08-23T22:06:25.574Z,30.82
2022-08-23T22:08:55.251Z,30.90
2022-08-23T22:11:24.030Z,30.90
2022-08-23T22:13:53.759Z,31.55
2022-08-23T22:16:21.486Z,31.31
2022-08-23T22:18:49.352Z,31.17
2022-08-23T22:21:16.748Z,31.22
2022-08-23T22:23:44.771Z,31.50
2022-08-23T22:26:14.300Z,31.94
2022-08-23T22:28:44.678Z,31.67
2022-08-23T22:31:15.260Z,31.90
2022-08-23T22:33:45.500Z,31.77
2022-08-23T22:36:18.221Z,32.14
2022-08-23T22:38:47.536Z,32.19
2022-08-23T22:41:20.244Z,32.10
2022-08-23T22:43:47.609Z,32.06
2022-08-23T22:46:15.129Z,32.16
2022-08-23T22:48:42.774Z,32.23
2022-08-23T22:51:14.817Z,32.36
2022-08-23T22:53:52.944Z,32.19
2022-08-23T22:56:25.987Z,32.84
2022-08-23T22:58:54.672Z,32.73
2022-08-23T23:01:26.621Z,32.62
2022-08-23T23:03:57.406Z,32.94
2022-08-23T23:06:25.791Z,33.09
2022-08-23T23:08:54.844Z,33.17
2022-08-23T23:11:25.434Z,33.22
2022-08-23T23:13:53.801Z,33.28
2022-08-23T23:16:27.305Z,33.38
2022-08-23T23:19:14.139Z,33.60
2022-08-23T23:21:45.445Z,33.43
2022-08-23T23:24:16.706Z,33.57
2022-08-23T23:26:47.608Z,33.91
2022-08-23T23:29:15.911Z,33.71
2022-08-23T23:31:43.572Z,33.96
2022-08-23T23:34:11.156Z,33.93
2022-08-23T23:36:38.845Z,33.67
2022-08-23T23:39:07.868Z,33.82
2022-08-23T23:41:35.273Z,34.06
2022-08-23T23:44:05.168Z,33.96
2022-08-23T23:46:32.719Z,33.95
2022-08-23T23:49:00.121Z,33.81
2022-08-23T23:51:30.443Z,34.11
2022-08-23T23:54:00.963Z,34.46
2022-08-23T23:56:30.645Z,34.21
2022-08-23T23:58:59.241Z,34.43
